sensor_id;sensor_type;location;lat;lon;timestamp;P1;durP1;ratioP1;P2;durP2;ratioP2
3427;SDS011;1727;42.624;23.406;2023-03-20T00:01:04;12.80;;;8.40;;
3427;SDS011;1727;42.624;23.406;2023-03-20T00:03:35;8.67;;;7.60;;
3427;SDS011;1727;42.624;23.406;2023-03-20T00:06:02;12.03;;;9.00;;
3427;SDS011;1727;42.624;23.406;2023-03-20T00:08:29;12.17;;;8.23;;
3427;SDS011;1727;42.624;23.406;2023-03-20T00:10:58;9.20;;;7.57;;
3427;SDS011;1727;42.624;23.406;2023-03-20T00:13:25;7.90;;;7.10;;
3427;SDS011;1727;42.624;23.406;2023-03-20T00:15:52;9.50;;;6.43;;
3427;SDS011;1727;42.624;23.406;2023-03-20T00:18:20;9.20;;;7.20;;
3427;SDS011;1727;42.624;23.406;2023-03-20T00:20:49;8.30;;;7.07;;
3427;SDS011;1727;42.624;23.406;2023-03-20T00:23:17;10.33;;;7.73;;
3427;SDS011;1727;42.624;23.406;2023-03-20T00:25:45;11.63;;;7.40;;
3427;SDS011;1727;42.624;23.406;2023-03-20T00:28:27;12.33;;;7.40;;
3427;SDS011;1727;42.624;23.406;2023-03-20T00:31:01;9.47;;;7.90;;
3427;SDS011;1727;42.624;23.406;2023-03-20T00:33:29;13.30;;;8.80;;
3427;SDS011;1727;42.624;23.406;2023-03-20T00:35:56;9.80;;;7.70;;
3427;SDS011;1727;42.624;23.406;2023-03-20T00:38:23;9.10;;;7.37;;
3427;SDS011;1727;42.624;23.406;2023-03-20T00:40:50;11.90;;;7.83;;
3427;SDS011;1727;42.624;23.406;2023-03-20T00:43:17;18.20;;;8.03;;
3427;SDS011;1727;42.624;23.406;2023-03-20T00:45:45;10.23;;;7.60;;
3427;SDS011;1727;42.624;23.406;2023-03-20T00:48:12;8.43;;;6.67;;
3427;SDS011;1727;42.624;23.406;2023-03-20T00:50:41;10.60;;;6.90;;
3427;SDS011;1727;42.624;23.406;2023-03-20T00:53:08;11.83;;;7.80;;
3427;SDS011;1727;42.624;23.406;2023-03-20T00:55:36;12.40;;;7.47;;
3427;SDS011;1727;42.624;23.406;2023-03-20T00:58:04;9.43;;;5.93;;
3427;SDS011;1727;42.624;23.406;2023-03-20T01:00:35;8.97;;;6.47;;
3427;SDS011;1727;42.624;23.406;2023-03-20T01:03:11;9.40;;;6.57;;
3427;SDS011;1727;42.624;23.406;2023-03-20T01:05:41;8.47;;;6.50;;
3427;SDS011;1727;42.624;23.406;2023-03-20T01:08:10;6.50;;;5.90;;
3427;SDS011;1727;42.624;23.406;2023-03-20T01:10:38;9.63;;;6.57;;
3427;SDS011;1727;42.624;23.406;2023-03-20T01:13:09;10.50;;;7.80;;
3427;SDS011;1727;42.624;23.406;2023-03-20T01:15:43;9.80;;;6.40;;
3427;SDS011;1727;42.624;23.406;2023-03-20T01:18:12;10.43;;;7.03;;
3427;SDS011;1727;42.624;23.406;2023-03-20T01:20:40;7.90;;;6.50;;
3427;SDS011;1727;42.624;23.406;2023-03-20T01:23:09;9.23;;;6.43;;
3427;SDS011;1727;42.624;23.406;2023-03-20T01:25:36;9.63;;;6.27;;
3427;SDS011;1727;42.624;23.406;2023-03-20T01:28:09;8.97;;;6.10;;
3427;SDS011;1727;42.624;23.406;2023-03-20T01:30:39;8.60;;;6.60;;
3427;SDS011;1727;42.624;23.406;2023-03-20T01:33:05;11.93;;;7.17;;
3427;SDS011;1727;42.624;23.406;2023-03-20T01:35:40;10.00;;;6.90;;
3427;SDS011;1727;42.624;23.406;2023-03-20T01:38:10;10.27;;;7.40;;
3427;SDS011;1727;42.624;23.406;2023-03-20T01:40:41;18.10;;;10.23;;
3427;SDS011;1727;42.624;23.406;2023-03-20T01:43:13;16.50;;;10.30;;
3427;SDS011;1727;42.624;23.406;2023-03-20T01:45:44;11.70;;;8.37;;
3427;SDS011;1727;42.624;23.406;2023-03-20T01:48:19;9.97;;;7.57;;
3427;SDS011;1727;42.624;23.406;2023-03-20T01:50:48;10.80;;;7.63;;
3427;SDS011;1727;42.624;23.406;2023-03-20T01:53:16;14.20;;;8.73;;
3427;SDS011;1727;42.624;23.406;2023-03-20T01:55:46;12.17;;;7.90;;
3427;SDS011;1727;42.624;23.406;2023-03-20T01:58:18;10.30;;;7.20;;
3427;SDS011;1727;42.624;23.406;2023-03-20T02:00:49;9.97;;;8.00;;
3427;SDS011;1727;42.624;23.406;2023-03-20T02:03:16;8.97;;;6.63;;
3427;SDS011;1727;42.624;23.406;2023-03-20T02:05:47;9.33;;;7.20;;
3427;SDS011;1727;42.624;23.406;2023-03-20T02:08:20;9.00;;;7.60;;
3427;SDS011;1727;42.624;23.406;2023-03-20T02:10:50;9.70;;;7.13;;
3427;SDS011;1727;42.624;23.406;2023-03-20T02:13:19;9.77;;;6.23;;
3427;SDS011;1727;42.624;23.406;2023-03-20T02:15:56;9.63;;;6.60;;
3427;SDS011;1727;42.624;23.406;2023-03-20T02:18:27;9.77;;;7.30;;
3427;SDS011;1727;42.624;23.406;2023-03-20T02:21:18;11.03;;;7.70;;
3427;SDS011;1727;42.624;23.406;2023-03-20T02:24:13;13.17;;;6.97;;
3427;SDS011;1727;42.624;23.406;2023-03-20T02:27:05;10.80;;;7.40;;
3427;SDS011;1727;42.624;23.406;2023-03-20T02:41:56;8.43;;;6.63;;
3427;SDS011;1727;42.624;23.406;2023-03-20T02:44:31;15.63;;;6.50;;
3427;SDS011;1727;42.624;23.406;2023-03-20T02:47:04;7.90;;;6.90;;
3427;SDS011;1727;42.624;23.406;2023-03-20T02:49:41;9.93;;;6.87;;
3427;SDS011;1727;42.624;23.406;2023-03-20T02:52:17;8.90;;;6.60;;
3427;SDS011;1727;42.624;23.406;2023-03-20T02:54:54;7.27;;;6.53;;
3427;SDS011;1727;42.624;23.406;2023-03-20T02:57:33;9.13;;;6.00;;
3427;SDS011;1727;42.624;23.406;2023-03-20T03:00:10;8.73;;;7.03;;
3427;SDS011;1727;42.624;23.406;2023-03-20T03:02:42;9.23;;;6.73;;
3427;SDS011;1727;42.624;23.406;2023-03-20T03:05:15;8.23;;;5.73;;
3427;SDS011;1727;42.624;23.406;2023-03-20T03:07:47;8.07;;;7.23;;
3427;SDS011;1727;42.624;23.406;2023-03-20T03:10:20;8.27;;;5.93;;
3427;SDS011;1727;42.624;23.406;2023-03-20T03:12:51;12.10;;;7.20;;
3427;SDS011;1727;42.624;23.406;2023-03-20T03:15:23;10.03;;;6.07;;
3427;SDS011;1727;42.624;23.406;2023-03-20T03:17:54;9.43;;;6.73;;
3427;SDS011;1727;42.624;23.406;2023-03-20T03:20:25;8.67;;;6.20;;
3427;SDS011;1727;42.624;23.406;2023-03-20T03:22:57;6.97;;;6.27;;
3427;SDS011;1727;42.624;23.406;2023-03-20T03:25:26;7.00;;;5.83;;
3427;SDS011;1727;42.624;23.406;2023-03-20T03:27:58;7.10;;;5.93;;
3427;SDS011;1727;42.624;23.406;2023-03-20T03:30:29;8.40;;;5.77;;
3427;SDS011;1727;42.624;23.406;2023-03-20T03:33:02;9.03;;;6.07;;
3427;SDS011;1727;42.624;23.406;2023-03-20T03:35:37;9.80;;;6.30;;
3427;SDS011;1727;42.624;23.406;2023-03-20T03:38:08;9.80;;;7.20;;
3427;SDS011;1727;42.624;23.406;2023-03-20T03:40:48;10.50;;;6.50;;
3427;SDS011;1727;42.624;23.406;2023-03-20T03:43:23;7.53;;;6.73;;
3427;SDS011;1727;42.624;23.406;2023-03-20T03:45:56;11.17;;;7.30;;
3427;SDS011;1727;42.624;23.406;2023-03-20T03:48:27;9.13;;;6.50;;
3427;SDS011;1727;42.624;23.406;2023-03-20T03:50:59;9.73;;;6.60;;
3427;SDS011;1727;42.624;23.406;2023-03-20T03:53:30;6.77;;;5.90;;
3427;SDS011;1727;42.624;23.406;2023-03-20T03:56:02;7.20;;;5.87;;
3427;SDS011;1727;42.624;23.406;2023-03-20T03:58:32;9.27;;;6.37;;
3427;SDS011;1727;42.624;23.406;2023-03-20T04:01:03;8.43;;;6.80;;
3427;SDS011;1727;42.624;23.406;2023-03-20T04:03:32;6.87;;;6.17;;
3427;SDS011;1727;42.624;23.406;2023-03-20T04:06:03;10.17;;;6.67;;
3427;SDS011;1727;42.624;23.406;2023-03-20T04:08:32;9.13;;;6.20;;
3427;SDS011;1727;42.624;23.406;2023-03-20T04:10:59;11.20;;;6.93;;
3427;SDS011;1727;42.624;23.406;2023-03-20T04:13:28;9.50;;;7.10;;
3427;SDS011;1727;42.624;23.406;2023-03-20T04:15:54;10.23;;;7.30;;
3427;SDS011;1727;42.624;23.406;2023-03-20T04:18:21;8.83;;;6.77;;
3427;SDS011;1727;42.624;23.406;2023-03-20T04:20:48;9.77;;;6.90;;
3427;SDS011;1727;42.624;23.406;2023-03-20T04:23:16;7.80;;;6.47;;
3427;SDS011;1727;42.624;23.406;2023-03-20T04:32:27;7.10;;;6.10;;
3427;SDS011;1727;42.624;23.406;2023-03-20T04:35:03;8.37;;;7.00;;
3427;SDS011;1727;42.624;23.406;2023-03-20T04:37:30;9.13;;;6.83;;
3427;SDS011;1727;42.624;23.406;2023-03-20T04:39:57;10.57;;;7.27;;
3427;SDS011;1727;42.624;23.406;2023-03-20T04:42:24;9.77;;;7.60;;
3427;SDS011;1727;42.624;23.406;2023-03-20T04:44:51;14.00;;;7.43;;
3427;SDS011;1727;42.624;23.406;2023-03-20T04:47:17;8.80;;;7.60;;
3427;SDS011;1727;42.624;23.406;2023-03-20T04:53:07;10.67;;;7.43;;
3427;SDS011;1727;42.624;23.406;2023-03-20T04:55:34;30.83;;;18.60;;
3427;SDS011;1727;42.624;23.406;2023-03-20T04:58:01;30.90;;;18.73;;
3427;SDS011;1727;42.624;23.406;2023-03-20T05:00:28;55.47;;;31.47;;
3427;SDS011;1727;42.624;23.406;2023-03-20T05:02:54;39.43;;;25.40;;
3427;SDS011;1727;42.624;23.406;2023-03-20T05:05:21;38.80;;;22.20;;
3427;SDS011;1727;42.624;23.406;2023-03-20T05:07:48;42.47;;;22.70;;
3427;SDS011;1727;42.624;23.406;2023-03-20T05:10:17;31.43;;;19.77;;
3427;SDS011;1727;42.624;23.406;2023-03-20T05:12:44;27.60;;;17.50;;
3427;SDS011;1727;42.624;23.406;2023-03-20T05:15:12;28.90;;;17.27;;
3427;SDS011;1727;42.624;23.406;2023-03-20T05:17:39;26.67;;;17.53;;
3427;SDS011;1727;42.624;23.406;2023-03-20T05:20:06;28.83;;;17.17;;
3427;SDS011;1727;42.624;23.406;2023-03-20T05:22:34;26.77;;;18.10;;
3427;SDS011;1727;42.624;23.406;2023-03-20T05:25:01;27.03;;;16.43;;
3427;SDS011;1727;42.624;23.406;2023-03-20T05:27:29;25.60;;;15.10;;
3427;SDS011;1727;42.624;23.406;2023-03-20T05:29:55;29.97;;;16.70;;
3427;SDS011;1727;42.624;23.406;2023-03-20T05:32:22;25.57;;;15.30;;
3427;SDS011;1727;42.624;23.406;2023-03-20T05:34:49;25.80;;;16.33;;
3427;SDS011;1727;42.624;23.406;2023-03-20T05:37:16;23.90;;;15.17;;
3427;SDS011;1727;42.624;23.406;2023-03-20T05:39:44;32.57;;;17.07;;
3427;SDS011;1727;42.624;23.406;2023-03-20T05:42:11;32.97;;;16.20;;
3427;SDS011;1727;42.624;23.406;2023-03-20T05:44:39;33.37;;;15.40;;
3427;SDS011;1727;42.624;23.406;2023-03-20T05:47:06;18.83;;;11.53;;
3427;SDS011;1727;42.624;23.406;2023-03-20T05:49:33;14.63;;;9.17;;
3427;SDS011;1727;42.624;23.406;2023-03-20T05:52:02;8.87;;;7.13;;
3427;SDS011;1727;42.624;23.406;2023-03-20T05:54:29;14.20;;;7.60;;
3427;SDS011;1727;42.624;23.406;2023-03-20T05:56:56;10.40;;;6.60;;
3427;SDS011;1727;42.624;23.406;2023-03-20T05:59:22;7.83;;;6.97;;
3427;SDS011;1727;42.624;23.406;2023-03-20T06:01:51;8.80;;;7.57;;
3427;SDS011;1727;42.624;23.406;2023-03-20T06:04:18;12.53;;;8.03;;
3427;SDS011;1727;42.624;23.406;2023-03-20T06:06:45;16.57;;;6.83;;
3427;SDS011;1727;42.624;23.406;2023-03-20T06:09:11;13.20;;;6.00;;
3427;SDS011;1727;42.624;23.406;2023-03-20T06:11:38;11.07;;;7.03;;
3427;SDS011;1727;42.624;23.406;2023-03-20T06:14:05;10.37;;;7.07;;
3427;SDS011;1727;42.624;23.406;2023-03-20T06:16:32;18.67;;;11.83;;
3427;SDS011;1727;42.624;23.406;2023-03-20T06:19:00;22.57;;;12.90;;
3427;SDS011;1727;42.624;23.406;2023-03-20T06:21:27;15.77;;;9.80;;
3427;SDS011;1727;42.624;23.406;2023-03-20T06:23:54;9.73;;;8.03;;
3427;SDS011;1727;42.624;23.406;2023-03-20T06:26:22;13.80;;;8.97;;
3427;SDS011;1727;42.624;23.406;2023-03-20T06:28:49;10.60;;;8.20;;
3427;SDS011;1727;42.624;23.406;2023-03-20T06:31:16;8.07;;;6.83;;
3427;SDS011;1727;42.624;23.406;2023-03-20T06:33:42;8.90;;;7.17;;
3427;SDS011;1727;42.624;23.406;2023-03-20T06:36:11;16.00;;;9.93;;
3427;SDS011;1727;42.624;23.406;2023-03-20T06:38:38;20.57;;;12.67;;
3427;SDS011;1727;42.624;23.406;2023-03-20T06:41:05;18.80;;;13.87;;
3427;SDS011;1727;42.624;23.406;2023-03-20T06:43:37;26.23;;;14.37;;
3427;SDS011;1727;42.624;23.406;2023-03-20T06:46:08;21.10;;;14.40;;
3427;SDS011;1727;42.624;23.406;2023-03-20T06:48:35;28.43;;;16.97;;
3427;SDS011;1727;42.624;23.406;2023-03-20T06:51:02;23.47;;;14.27;;
3427;SDS011;1727;42.624;23.406;2023-03-20T06:53:30;26.50;;;14.33;;
3427;SDS011;1727;42.624;23.406;2023-03-20T06:55:57;19.93;;;13.20;;
3427;SDS011;1727;42.624;23.406;2023-03-20T06:58:24;25.23;;;14.73;;
3427;SDS011;1727;42.624;23.406;2023-03-20T07:00:51;25.20;;;15.50;;
3427;SDS011;1727;42.624;23.406;2023-03-20T07:03:18;26.30;;;15.90;;
3427;SDS011;1727;42.624;23.406;2023-03-20T07:05:46;21.23;;;15.20;;
3427;SDS011;1727;42.624;23.406;2023-03-20T07:08:12;18.30;;;12.97;;
3427;SDS011;1727;42.624;23.406;2023-03-20T07:10:47;21.03;;;12.73;;
3427;SDS011;1727;42.624;23.406;2023-03-20T07:13:13;19.67;;;12.10;;
3427;SDS011;1727;42.624;23.406;2023-03-20T07:15:45;23.13;;;12.57;;
3427;SDS011;1727;42.624;23.406;2023-03-20T07:18:12;20.47;;;13.73;;
3427;SDS011;1727;42.624;23.406;2023-03-20T07:20:41;24.93;;;14.50;;
3427;SDS011;1727;42.624;23.406;2023-03-20T07:23:08;39.33;;;15.50;;
3427;SDS011;1727;42.624;23.406;2023-03-20T07:25:40;21.07;;;14.50;;
3427;SDS011;1727;42.624;23.406;2023-03-20T07:28:09;30.17;;;15.23;;
3427;SDS011;1727;42.624;23.406;2023-03-20T07:30:35;23.33;;;16.10;;
3427;SDS011;1727;42.624;23.406;2023-03-20T07:33:02;23.63;;;14.13;;
3427;SDS011;1727;42.624;23.406;2023-03-20T07:35:30;23.40;;;15.30;;
3427;SDS011;1727;42.624;23.406;2023-03-20T07:37:57;26.47;;;16.10;;
3427;SDS011;1727;42.624;23.406;2023-03-20T07:40:23;23.70;;;15.60;;
3427;SDS011;1727;42.624;23.406;2023-03-20T07:42:51;28.10;;;14.37;;
3427;SDS011;1727;42.624;23.406;2023-03-20T07:45:19;24.57;;;14.40;;
3427;SDS011;1727;42.624;23.406;2023-03-20T07:47:46;24.40;;;12.80;;
3427;SDS011;1727;42.624;23.406;2023-03-20T07:50:13;18.00;;;14.20;;
3427;SDS011;1727;42.624;23.406;2023-03-20T07:52:44;18.23;;;12.23;;
3427;SDS011;1727;42.624;23.406;2023-03-20T07:55:11;22.33;;;12.73;;
3427;SDS011;1727;42.624;23.406;2023-03-20T07:57:38;20.13;;;13.47;;
3427;SDS011;1727;42.624;23.406;2023-03-20T08:00:05;23.17;;;13.13;;
3427;SDS011;1727;42.624;23.406;2023-03-20T08:02:34;28.80;;;14.23;;
3427;SDS011;1727;42.624;23.406;2023-03-20T08:05:01;22.73;;;13.13;;
3427;SDS011;1727;42.624;23.406;2023-03-20T08:07:30;25.40;;;15.37;;
3427;SDS011;1727;42.624;23.406;2023-03-20T08:09:56;27.83;;;16.57;;
3427;SDS011;1727;42.624;23.406;2023-03-20T08:12:26;27.50;;;14.47;;
3427;SDS011;1727;42.624;23.406;2023-03-20T08:14:53;19.77;;;13.97;;
3427;SDS011;1727;42.624;23.406;2023-03-20T08:17:20;26.03;;;13.70;;
3427;SDS011;1727;42.624;23.406;2023-03-20T08:19:48;26.50;;;18.27;;
3427;SDS011;1727;42.624;23.406;2023-03-20T08:22:15;30.63;;;18.63;;
3427;SDS011;1727;42.624;23.406;2023-03-20T08:24:42;28.50;;;16.80;;
3427;SDS011;1727;42.624;23.406;2023-03-20T08:27:09;17.97;;;16.03;;
3427;SDS011;1727;42.624;23.406;2023-03-20T08:29:36;30.50;;;18.40;;
3427;SDS011;1727;42.624;23.406;2023-03-20T08:32:03;23.87;;;16.70;;
3427;SDS011;1727;42.624;23.406;2023-03-20T08:34:30;30.97;;;20.53;;
3427;SDS011;1727;42.624;23.406;2023-03-20T08:37:07;27.97;;;17.07;;
3427;SDS011;1727;42.624;23.406;2023-03-20T08:39:36;29.13;;;18.67;;
3427;SDS011;1727;42.624;23.406;2023-03-20T08:42:03;36.40;;;21.17;;
3427;SDS011;1727;42.624;23.406;2023-03-20T08:44:30;27.10;;;21.00;;
3427;SDS011;1727;42.624;23.406;2023-03-20T08:46:57;28.80;;;19.63;;
3427;SDS011;1727;42.624;23.406;2023-03-20T08:49:24;31.17;;;20.30;;
3427;SDS011;1727;42.624;23.406;2023-03-20T08:51:51;21.60;;;17.47;;
3427;SDS011;1727;42.624;23.406;2023-03-20T08:54:20;23.27;;;19.10;;
3427;SDS011;1727;42.624;23.406;2023-03-20T08:56:46;31.40;;;20.70;;
3427;SDS011;1727;42.624;23.406;2023-03-20T08:59:13;28.07;;;17.80;;
3427;SDS011;1727;42.624;23.406;2023-03-20T09:01:40;24.07;;;17.17;;
3427;SDS011;1727;42.624;23.406;2023-03-20T09:04:07;22.43;;;14.83;;
3427;SDS011;1727;42.624;23.406;2023-03-20T09:06:35;27.80;;;17.13;;
3427;SDS011;1727;42.624;23.406;2023-03-20T09:09:02;72.33;;;39.17;;
3427;SDS011;1727;42.624;23.406;2023-03-20T09:11:31;36.43;;;20.10;;
3427;SDS011;1727;42.624;23.406;2023-03-20T09:14:13;87.63;;;51.87;;
3427;SDS011;1727;42.624;23.406;2023-03-20T09:16:40;27.00;;;19.87;;
3427;SDS011;1727;42.624;23.406;2023-03-20T09:19:09;27.43;;;16.53;;
3427;SDS011;1727;42.624;23.406;2023-03-20T09:21:36;24.33;;;16.43;;
3427;SDS011;1727;42.624;23.406;2023-03-20T09:24:03;32.90;;;19.73;;
3427;SDS011;1727;42.624;23.406;2023-03-20T09:26:34;18.73;;;13.83;;
3427;SDS011;1727;42.624;23.406;2023-03-20T09:29:01;23.40;;;15.47;;
3427;SDS011;1727;42.624;23.406;2023-03-20T09:31:31;21.80;;;15.00;;
3427;SDS011;1727;42.624;23.406;2023-03-20T09:33:58;21.77;;;14.13;;
3427;SDS011;1727;42.624;23.406;2023-03-20T09:36:25;22.23;;;13.83;;
3427;SDS011;1727;42.624;23.406;2023-03-20T09:38:54;22.53;;;14.40;;
3427;SDS011;1727;42.624;23.406;2023-03-20T09:41:22;18.63;;;13.20;;
3427;SDS011;1727;42.624;23.406;2023-03-20T09:43:56;19.40;;;12.03;;
3427;SDS011;1727;42.624;23.406;2023-03-20T09:46:40;19.17;;;13.57;;
3427;SDS011;1727;42.624;23.406;2023-03-20T09:49:35;18.90;;;12.23;;
3427;SDS011;1727;42.624;23.406;2023-03-20T09:52:13;17.43;;;11.80;;
3427;SDS011;1727;42.624;23.406;2023-03-20T09:54:49;15.83;;;11.60;;
3427;SDS011;1727;42.624;23.406;2023-03-20T09:57:22;15.63;;;10.40;;
3427;SDS011;1727;42.624;23.406;2023-03-20T09:59:53;16.00;;;11.00;;
3427;SDS011;1727;42.624;23.406;2023-03-20T10:02:24;22.37;;;11.80;;
3427;SDS011;1727;42.624;23.406;2023-03-20T10:05:01;30.57;;;16.70;;
3427;SDS011;1727;42.624;23.406;2023-03-20T10:07:30;19.80;;;12.03;;
3427;SDS011;1727;42.624;23.406;2023-03-20T10:09:56;13.53;;;9.67;;
3427;SDS011;1727;42.624;23.406;2023-03-20T10:12:28;18.03;;;10.43;;
3427;SDS011;1727;42.624;23.406;2023-03-20T10:15:09;13.27;;;10.93;;
3427;SDS011;1727;42.624;23.406;2023-03-20T10:17:47;12.60;;;9.70;;
3427;SDS011;1727;42.624;23.406;2023-03-20T10:20:21;13.30;;;9.40;;
3427;SDS011;1727;42.624;23.406;2023-03-20T10:22:55;25.47;;;13.97;;
3427;SDS011;1727;42.624;23.406;2023-03-20T10:25:30;26.80;;;14.20;;
3427;SDS011;1727;42.624;23.406;2023-03-20T10:27:59;19.37;;;11.37;;
3427;SDS011;1727;42.624;23.406;2023-03-20T10:30:33;15.57;;;9.50;;
3427;SDS011;1727;42.624;23.406;2023-03-20T10:33:19;15.57;;;10.20;;
3427;SDS011;1727;42.624;23.406;2023-03-20T10:35:57;15.33;;;11.23;;
3427;SDS011;1727;42.624;23.406;2023-03-20T10:38:36;16.93;;;9.73;;
3427;SDS011;1727;42.624;23.406;2023-03-20T10:41:16;18.00;;;10.90;;
3427;SDS011;1727;42.624;23.406;2023-03-20T10:43:45;26.73;;;13.17;;
3427;SDS011;1727;42.624;23.406;2023-03-20T10:46:19;14.53;;;11.30;;
3427;SDS011;1727;42.624;23.406;2023-03-20T10:48:55;14.97;;;9.87;;
3427;SDS011;1727;42.624;23.406;2023-03-20T10:51:29;19.43;;;11.93;;
3427;SDS011;1727;42.624;23.406;2023-03-20T10:54:04;19.00;;;10.83;;
3427;SDS011;1727;42.624;23.406;2023-03-20T10:56:39;42.33;;;20.87;;
3427;SDS011;1727;42.624;23.406;2023-03-20T10:59:11;13.37;;;9.83;;
3427;SDS011;1727;42.624;23.406;2023-03-20T11:01:48;14.43;;;9.00;;
3427;SDS011;1727;42.624;23.406;2023-03-20T11:04:16;15.57;;;10.67;;
3427;SDS011;1727;42.624;23.406;2023-03-20T11:06:45;18.73;;;10.80;;
3427;SDS011;1727;42.624;23.406;2023-03-20T11:09:19;16.50;;;10.50;;
3427;SDS011;1727;42.624;23.406;2023-03-20T11:11:51;15.17;;;9.60;;
3427;SDS011;1727;42.624;23.406;2023-03-20T11:14:22;17.80;;;9.77;;
3427;SDS011;1727;42.624;23.406;2023-03-20T11:16:55;15.80;;;9.47;;
3427;SDS011;1727;42.624;23.406;2023-03-20T11:19:34;22.87;;;11.00;;
3427;SDS011;1727;42.624;23.406;2023-03-20T11:22:06;17.93;;;11.23;;
3427;SDS011;1727;42.624;23.406;2023-03-20T11:24:34;17.33;;;9.70;;
3427;SDS011;1727;42.624;23.406;2023-03-20T11:27:08;16.10;;;10.43;;
3427;SDS011;1727;42.624;23.406;2023-03-20T11:29:37;20.90;;;10.70;;
3427;SDS011;1727;42.624;23.406;2023-03-20T11:32:21;14.63;;;9.87;;
3427;SDS011;1727;42.624;23.406;2023-03-20T11:34:53;21.77;;;10.97;;
3427;SDS011;1727;42.624;23.406;2023-03-20T11:37:22;20.73;;;10.77;;
3427;SDS011;1727;42.624;23.406;2023-03-20T11:39:56;22.50;;;10.73;;
3427;SDS011;1727;42.624;23.406;2023-03-20T11:42:25;18.40;;;11.53;;
3427;SDS011;1727;42.624;23.406;2023-03-20T11:44:57;20.97;;;10.87;;
3427;SDS011;1727;42.624;23.406;2023-03-20T11:47:32;25.37;;;11.43;;
3427;SDS011;1727;42.624;23.406;2023-03-20T11:50:01;23.03;;;13.27;;
3427;SDS011;1727;42.624;23.406;2023-03-20T11:52:31;22.03;;;11.60;;
3427;SDS011;1727;42.624;23.406;2023-03-20T11:55:00;21.67;;;12.60;;
3427;SDS011;1727;42.624;23.406;2023-03-20T11:57:31;18.33;;;11.60;;
3427;SDS011;1727;42.624;23.406;2023-03-20T12:00:03;22.40;;;13.37;;
3427;SDS011;1727;42.624;23.406;2023-03-20T12:02:34;22.47;;;12.13;;
3427;SDS011;1727;42.624;23.406;2023-03-20T12:05:16;21.13;;;12.03;;
3427;SDS011;1727;42.624;23.406;2023-03-20T12:07:45;13.07;;;9.73;;
3427;SDS011;1727;42.624;23.406;2023-03-20T12:10:17;17.60;;;11.47;;
3427;SDS011;1727;42.624;23.406;2023-03-20T12:12:47;11.60;;;9.40;;
3427;SDS011;1727;42.624;23.406;2023-03-20T12:15:21;15.90;;;10.07;;
3427;SDS011;1727;42.624;23.406;2023-03-20T12:17:55;22.40;;;10.57;;
3427;SDS011;1727;42.624;23.406;2023-03-20T12:20:29;10.50;;;8.60;;
3427;SDS011;1727;42.624;23.406;2023-03-20T12:23:05;24.13;;;8.03;;
3427;SDS011;1727;42.624;23.406;2023-03-20T12:25:39;13.13;;;7.53;;
3427;SDS011;1727;42.624;23.406;2023-03-20T12:28:13;9.03;;;6.47;;
3427;SDS011;1727;42.624;23.406;2023-03-20T12:30:53;12.67;;;8.97;;
3427;SDS011;1727;42.624;23.406;2023-03-20T12:33:33;10.43;;;8.27;;
3427;SDS011;1727;42.624;23.406;2023-03-20T12:36:11;11.03;;;9.90;;
3427;SDS011;1727;42.624;23.406;2023-03-20T12:38:40;10.43;;;6.70;;
3427;SDS011;1727;42.624;23.406;2023-03-20T12:41:10;11.83;;;8.57;;
3427;SDS011;1727;42.624;23.406;2023-03-20T12:43:43;14.53;;;7.90;;
3427;SDS011;1727;42.624;23.406;2023-03-20T12:46:28;11.57;;;8.00;;
3427;SDS011;1727;42.624;23.406;2023-03-20T12:49:07;13.47;;;8.47;;
3427;SDS011;1727;42.624;23.406;2023-03-20T12:51:51;11.83;;;7.57;;
3427;SDS011;1727;42.624;23.406;2023-03-20T12:54:35;12.60;;;8.60;;
3427;SDS011;1727;42.624;23.406;2023-03-20T12:57:24;16.17;;;9.20;;
3427;SDS011;1727;42.624;23.406;2023-03-20T13:00:11;10.60;;;7.40;;
3427;SDS011;1727;42.624;23.406;2023-03-20T13:02:48;18.03;;;6.77;;
3427;SDS011;1727;42.624;23.406;2023-03-20T13:05:29;10.23;;;7.60;;
3427;SDS011;1727;42.624;23.406;2023-03-20T13:08:22;9.57;;;7.93;;
3427;SDS011;1727;42.624;23.406;2023-03-20T13:11:01;10.00;;;7.33;;
3427;SDS011;1727;42.624;23.406;2023-03-20T13:13:36;8.27;;;7.30;;
3427;SDS011;1727;42.624;23.406;2023-03-20T13:16:12;15.23;;;7.90;;
3427;SDS011;1727;42.624;23.406;2023-03-20T13:18:56;10.80;;;7.03;;
3427;SDS011;1727;42.624;23.406;2023-03-20T13:21:32;11.77;;;6.63;;
3427;SDS011;1727;42.624;23.406;2023-03-20T13:24:11;8.60;;;6.77;;
3427;SDS011;1727;42.624;23.406;2023-03-20T13:26:49;9.43;;;7.50;;
3427;SDS011;1727;42.624;23.406;2023-03-20T13:29:24;13.97;;;6.37;;
3427;SDS011;1727;42.624;23.406;2023-03-20T13:32:02;8.50;;;5.40;;
3427;SDS011;1727;42.624;23.406;2023-03-20T13:34:47;13.00;;;6.70;;
3427;SDS011;1727;42.624;23.406;2023-03-20T13:37:24;11.70;;;6.00;;
3427;SDS011;1727;42.624;23.406;2023-03-20T13:40:02;7.30;;;4.80;;
3427;SDS011;1727;42.624;23.406;2023-03-20T13:42:37;8.67;;;5.17;;
3427;SDS011;1727;42.624;23.406;2023-03-20T13:45:17;15.40;;;4.80;;
3427;SDS011;1727;42.624;23.406;2023-03-20T13:47:51;13.30;;;5.33;;
3427;SDS011;1727;42.624;23.406;2023-03-20T13:50:25;12.07;;;5.40;;
3427;SDS011;1727;42.624;23.406;2023-03-20T13:53:02;11.53;;;5.07;;
3427;SDS011;1727;42.624;23.406;2023-03-20T13:55:39;6.40;;;4.00;;
3427;SDS011;1727;42.624;23.406;2023-03-20T13:58:16;4.50;;;4.10;;
3427;SDS011;1727;42.624;23.406;2023-03-20T14:04:14;24.60;;;16.90;;
3427;SDS011;1727;42.624;23.406;2023-03-20T14:06:48;13.53;;;10.13;;
3427;SDS011;1727;42.624;23.406;2023-03-20T14:09:25;10.33;;;5.30;;
3427;SDS011;1727;42.624;23.406;2023-03-20T14:11:54;20.80;;;14.70;;
3427;SDS011;1727;42.624;23.406;2023-03-20T14:14:25;14.70;;;7.17;;
3427;SDS011;1727;42.624;23.406;2023-03-20T14:17:01;8.47;;;5.43;;
3427;SDS011;1727;42.624;23.406;2023-03-20T14:19:34;7.30;;;4.97;;
3427;SDS011;1727;42.624;23.406;2023-03-20T14:22:02;5.73;;;4.63;;
3427;SDS011;1727;42.624;23.406;2023-03-20T14:24:33;9.60;;;7.20;;
3427;SDS011;1727;42.624;23.406;2023-03-20T14:27:02;11.73;;;4.77;;
3427;SDS011;1727;42.624;23.406;2023-03-20T14:29:49;3.97;;;3.57;;
3427;SDS011;1727;42.624;23.406;2023-03-20T14:32:30;4.63;;;4.23;;
3427;SDS011;1727;42.624;23.406;2023-03-20T14:35:00;4.93;;;4.43;;
3427;SDS011;1727;42.624;23.406;2023-03-20T14:38:08;6.10;;;4.27;;
3427;SDS011;1727;42.624;23.406;2023-03-20T14:40:53;8.23;;;4.70;;
3427;SDS011;1727;42.624;23.406;2023-03-20T14:43:31;7.50;;;4.83;;
3427;SDS011;1727;42.624;23.406;2023-03-20T14:46:14;4.73;;;4.33;;
3427;SDS011;1727;42.624;23.406;2023-03-20T14:48:47;7.93;;;4.80;;
3427;SDS011;1727;42.624;23.406;2023-03-20T14:51:26;8.50;;;4.77;;
3427;SDS011;1727;42.624;23.406;2023-03-20T14:57:06;5.87;;;4.17;;
3427;SDS011;1727;42.624;23.406;2023-03-20T14:59:35;5.10;;;4.13;;
3427;SDS011;1727;42.624;23.406;2023-03-20T15:02:02;5.17;;;4.23;;
3427;SDS011;1727;42.624;23.406;2023-03-20T15:04:31;6.50;;;4.40;;
3427;SDS011;1727;42.624;23.406;2023-03-20T15:07:01;5.40;;;4.90;;
3427;SDS011;1727;42.624;23.406;2023-03-20T15:09:32;4.43;;;4.03;;
3427;SDS011;1727;42.624;23.406;2023-03-20T15:12:04;6.63;;;4.30;;
3427;SDS011;1727;42.624;23.406;2023-03-20T15:14:36;6.27;;;4.63;;
3427;SDS011;1727;42.624;23.406;2023-03-20T15:17:15;7.00;;;5.03;;
3427;SDS011;1727;42.624;23.406;2023-03-20T15:19:43;12.80;;;5.87;;
3427;SDS011;1727;42.624;23.406;2023-03-20T15:22:13;14.73;;;4.80;;
3427;SDS011;1727;42.624;23.406;2023-03-20T15:24:42;9.70;;;5.50;;
3427;SDS011;1727;42.624;23.406;2023-03-20T15:30:40;10.40;;;5.23;;
3427;SDS011;1727;42.624;23.406;2023-03-20T15:33:09;7.30;;;4.90;;
3427;SDS011;1727;42.624;23.406;2023-03-20T15:35:42;12.60;;;6.70;;
3427;SDS011;1727;42.624;23.406;2023-03-20T15:38:09;19.23;;;6.77;;
3427;SDS011;1727;42.624;23.406;2023-03-20T15:40:40;13.30;;;7.50;;
3427;SDS011;1727;42.624;23.406;2023-03-20T15:43:10;15.27;;;6.57;;